createdAt,value
2018-12-12T00:00:44.602Z,4.43
2018-12-12T00:03:13.912Z,4.13
2018-12-12T00:05:43.169Z,3.60
2018-12-12T00:08:12.339Z,4.17
2018-12-12T00:10:41.545Z,5.60
2018-12-12T00:13:10.783Z,4.20
2018-12-12T00:15:40.712Z,3.83
2018-12-12T00:18:10.366Z,3.77
2018-12-12T00:20:39.769Z,3.47
2018-12-12T00:23:09.061Z,3.90
2018-12-12T00:25:38.406Z,5.03
2018-12-12T00:28:07.569Z,4.57
2018-12-12T00:30:37.034Z,4.77
2018-12-12T00:33:06.269Z,4.07
2018-12-12T00:35:35.580Z,4.50
2018-12-12T00:38:04.868Z,5.00
2018-12-12T00:40:34.067Z,6.40
2018-12-12T00:43:03.428Z,6.47
2018-12-12T00:45:33.000Z,5.77
2018-12-12T00:48:02.378Z,4.17
2018-12-12T00:50:31.946Z,5.43
2018-12-12T00:53:01.081Z,5.10
2018-12-12T00:55:30.312Z,5.73
2018-12-12T00:57:59.597Z,4.37
2018-12-12T01:00:28.903Z,4.37
2018-12-12T01:02:58.273Z,4.60
2018-12-12T01:05:27.693Z,3.80
2018-12-12T01:07:57.068Z,4.30
2018-12-12T01:10:26.355Z,6.13
2018-12-12T01:12:55.629Z,4.40
2018-12-12T01:15:25.033Z,6.67
2018-12-12T01:17:54.697Z,5.50
2018-12-12T01:20:24.002Z,5.13
2018-12-12T01:22:53.309Z,5.50
2018-12-12T01:25:23.632Z,5.53
2018-12-12T01:27:53.152Z,5.13
2018-12-12T01:30:22.533Z,3.33
2018-12-12T01:32:51.743Z,5.00
2018-12-12T01:35:20.826Z,4.50
2018-12-12T01:37:49.937Z,6.10
2018-12-12T01:40:19.333Z,5.87
2018-12-12T01:42:48.516Z,5.20
2018-12-12T01:45:18.205Z,6.10
2018-12-12T01:47:47.567Z,5.37
2018-12-12T01:50:16.736Z,5.20
2018-12-12T01:52:46.040Z,4.43
2018-12-12T01:55:15.174Z,5.50
2018-12-12T01:57:44.429Z,5.43
2018-12-12T02:00:13.729Z,4.33
2018-12-12T02:02:43.057Z,4.13
2018-12-12T02:05:12.858Z,4.33
2018-12-12T02:07:42.228Z,5.23
2018-12-12T02:10:11.443Z,6.30
2018-12-12T02:12:40.884Z,4.93
2018-12-12T02:15:10.123Z,4.90
2018-12-12T02:17:39.336Z,4.80
2018-12-12T02:20:08.612Z,4.87
2018-12-12T02:22:37.952Z,4.87
2018-12-12T02:25:07.518Z,5.70
2018-12-12T02:27:36.704Z,5.30
2018-12-12T02:30:06.404Z,5.10
2018-12-12T02:32:35.682Z,7.07
2018-12-12T02:35:05.004Z,6.30
2018-12-12T02:37:34.441Z,5.37
2018-12-12T02:40:04.004Z,7.37
2018-12-12T02:42:33.223Z,4.93
2018-12-12T02:45:02.491Z,4.53
2018-12-12T02:47:31.660Z,5.50
2018-12-12T02:50:01.146Z,6.37
2018-12-12T02:52:30.447Z,5.63
2018-12-12T02:54:59.675Z,4.93
2018-12-12T02:57:28.886Z,4.47
2018-12-12T02:59:58.293Z,4.60
2018-12-12T03:02:27.674Z,5.33
2018-12-12T03:04:56.858Z,7.23
2018-12-12T03:07:25.956Z,6.23
2018-12-12T03:09:55.091Z,6.20
2018-12-12T03:12:24.330Z,6.43
2018-12-12T03:14:53.439Z,6.47
2018-12-12T03:17:22.496Z,6.23
2018-12-12T03:19:51.759Z,5.10
2018-12-12T03:22:21.058Z,5.30
2018-12-12T03:24:50.357Z,5.10
2018-12-12T03:27:19.561Z,5.87
2018-12-12T03:29:48.813Z,4.80
2018-12-12T03:32:17.933Z,6.93
2018-12-12T03:34:47.077Z,5.93
2018-12-12T03:37:16.252Z,5.80
2018-12-12T03:39:45.566Z,6.50
2018-12-12T03:42:14.740Z,5.53
2018-12-12T03:44:43.947Z,5.90
2018-12-12T03:47:13.870Z,3.70
2018-12-12T03:49:43.538Z,6.40
2018-12-12T03:52:12.599Z,4.80
2018-12-12T03:54:41.980Z,4.33
2018-12-12T03:57:11.195Z,5.30
2018-12-12T03:59:40.579Z,4.20
2018-12-12T04:02:09.772Z,4.90
2018-12-12T04:04:39.004Z,4.63
2018-12-12T04:07:08.164Z,7.50
2018-12-12T04:09:37.361Z,4.80
2018-12-12T04:12:06.493Z,5.00
2018-12-12T04:14:35.864Z,5.70
2018-12-12T04:17:05.222Z,5.87
2018-12-12T04:19:34.508Z,6.13
2018-12-12T04:22:03.613Z,3.23
2018-12-12T04:24:33.264Z,4.83
2018-12-12T04:27:02.544Z,5.40
2018-12-12T04:29:31.797Z,4.97
2018-12-12T04:32:01.069Z,5.00
2018-12-12T04:34:30.462Z,6.17
2018-12-12T04:36:59.891Z,4.50
2018-12-12T04:39:29.121Z,2.03
2018-12-12T04:41:58.758Z,5.80
2018-12-12T04:44:28.291Z,4.63
2018-12-12T04:46:57.595Z,3.60
2018-12-12T04:49:26.890Z,5.07
2018-12-12T04:51:56.325Z,6.53
2018-12-12T04:54:25.652Z,5.87
2018-12-12T04:56:54.799Z,6.37
2018-12-12T04:59:24.308Z,5.40
2018-12-12T05:01:53.586Z,5.07
2018-12-12T05:04:22.785Z,5.40
2018-12-12T05:06:52.140Z,4.60
2018-12-12T05:09:21.259Z,5.20
2018-12-12T05:11:50.845Z,5.07
2018-12-12T05:14:20.112Z,4.10
2018-12-12T05:16:49.492Z,5.80
2018-12-12T05:19:18.760Z,4.40
2018-12-12T05:21:48.116Z,4.50
2018-12-12T05:24:17.476Z,6.07
2018-12-12T05:26:46.705Z,4.23
2018-12-12T05:29:16.036Z,4.47
2018-12-12T05:31:45.443Z,4.30
2018-12-12T05:34:14.679Z,5.63
2018-12-12T05:36:44.016Z,5.70
2018-12-12T05:39:13.208Z,4.50
2018-12-12T05:41:42.645Z,5.70
2018-12-12T05:44:11.751Z,4.93
2018-12-12T05:46:42.013Z,6.23
2018-12-12T05:49:11.423Z,5.83
2018-12-12T05:51:40.696Z,5.37
2018-12-12T05:54:09.764Z,5.00
2018-12-12T05:56:39.242Z,4.40
2018-12-12T05:59:08.555Z,5.20
2018-12-12T06:01:38.007Z,6.23
2018-12-12T06:04:07.428Z,5.10
2018-12-12T06:06:36.755Z,6.57
2018-12-12T06:09:08.894Z,5.53
2018-12-12T06:11:38.904Z,3.83
2018-12-12T06:14:08.387Z,6.10
2018-12-12T06:16:37.525Z,4.70
2018-12-12T06:19:06.753Z,5.43
2018-12-12T06:21:36.031Z,7.03
2018-12-12T06:24:05.330Z,5.30
2018-12-12T06:26:37.427Z,4.10
2018-12-12T06:29:06.071Z,5.83
2018-12-12T06:31:35.472Z,6.13
2018-12-12T06:34:04.676Z,6.60
2018-12-12T06:36:33.868Z,5.40
2018-12-12T06:39:04.369Z,6.67
2018-12-12T06:41:33.478Z,5.23
2018-12-12T06:44:02.876Z,4.63
2018-12-12T06:46:32.123Z,5.53
2018-12-12T06:49:01.412Z,3.97
2018-12-12T06:51:30.596Z,4.30
2018-12-12T06:53:59.988Z,6.17
2018-12-12T06:56:29.383Z,6.00
2018-12-12T06:58:59.611Z,5.87
2018-12-12T07:01:28.794Z,5.20
2018-12-12T07:03:57.936Z,6.27
2018-12-12T07:06:27.525Z,5.47
2018-12-12T07:08:56.954Z,7.37
2018-12-12T07:11:26.211Z,6.07
2018-12-12T07:13:55.447Z,8.17
2018-12-12T07:16:24.959Z,6.80
2018-12-12T07:18:54.230Z,5.97
2018-12-12T07:21:23.504Z,4.80
2018-12-12T07:23:52.824Z,6.90
2018-12-12T07:26:21.968Z,6.40
2018-12-12T07:28:51.575Z,6.27
2018-12-12T07:31:20.807Z,4.70
2018-12-12T07:33:49.943Z,4.90
2018-12-12T07:36:19.071Z,4.67
2018-12-12T07:38:48.571Z,4.87
2018-12-12T07:41:17.956Z,5.20
2018-12-12T07:43:47.532Z,5.57
2018-12-12T07:46:18.486Z,4.77
2018-12-12T07:48:48.145Z,4.47
2018-12-12T07:51:17.786Z,6.10
2018-12-12T07:53:47.165Z,3.90
2018-12-12T07:56:16.811Z,4.57
2018-12-12T07:58:46.528Z,5.50
2018-12-12T08:01:16.334Z,4.80
2018-12-12T08:03:46.244Z,4.40
2018-12-12T08:06:15.586Z,5.50
2018-12-12T08:08:44.942Z,5.77
2018-12-12T08:11:14.659Z,3.80
2018-12-12T08:13:44.071Z,3.63
2018-12-12T08:16:13.731Z,5.67
2018-12-12T08:18:43.135Z,3.27
2018-12-12T08:21:12.410Z,4.77
2018-12-12T08:23:41.654Z,3.57
2018-12-12T08:26:11.088Z,4.30
2018-12-12T08:28:41.150Z,5.10
2018-12-12T08:31:11.013Z,4.07
2018-12-12T08:33:40.248Z,5.40
2018-12-12T08:36:09.620Z,5.10
2018-12-12T08:38:39.100Z,4.00
2018-12-12T08:41:08.276Z,3.70
2018-12-12T08:43:37.603Z,4.40
2018-12-12T08:46:07.224Z,4.00
2018-12-12T08:48:36.529Z,5.33
2018-12-12T08:51:05.936Z,3.30
2018-12-12T08:53:35.280Z,4.73
2018-12-12T08:56:04.452Z,4.87
2018-12-12T08:58:33.626Z,4.60
2018-12-12T09:01:03.000Z,4.20
2018-12-12T09:03:32.100Z,4.70
2018-12-12T09:06:01.175Z,4.83
2018-12-12T09:08:33.463Z,6.27
2018-12-12T09:11:03.105Z,3.30
2018-12-12T09:13:32.790Z,3.47
2018-12-12T09:16:02.097Z,2.93
2018-12-12T09:18:31.398Z,2.30
2018-12-12T09:21:01.549Z,3.53
2018-12-12T09:23:38.312Z,2.23
2018-12-12T09:26:08.793Z,2.07
2018-12-12T09:28:39.799Z,2.77
2018-12-12T09:31:11.736Z,2.47
2018-12-12T09:33:42.376Z,2.90
2018-12-12T09:36:15.458Z,4.03
2018-12-12T09:38:45.228Z,4.23
2018-12-12T09:41:15.963Z,3.50
2018-12-12T09:43:46.474Z,3.00
2018-12-12T09:46:16.058Z,2.80
2018-12-12T09:48:45.204Z,2.33
2018-12-12T09:51:14.411Z,2.77
2018-12-12T09:53:43.769Z,2.73
2018-12-12T09:56:13.139Z,2.03
2018-12-12T09:58:43.535Z,3.27
2018-12-12T10:01:14.359Z,3.13
2018-12-12T10:03:43.741Z,3.93
2018-12-12T10:06:16.514Z,4.40
2018-12-12T10:08:48.086Z,4.90
2018-12-12T10:11:17.621Z,3.60
2018-12-12T10:13:47.680Z,3.60
2018-12-12T10:16:17.321Z,3.70
2018-12-12T10:18:47.692Z,4.13
2018-12-12T10:21:18.125Z,3.67
2018-12-12T10:23:48.144Z,3.30
2018-12-12T10:26:20.152Z,3.60
2018-12-12T10:28:51.257Z,2.93
2018-12-12T10:31:20.504Z,3.37
2018-12-12T10:33:49.867Z,3.13
2018-12-12T10:36:19.202Z,2.57
2018-12-12T10:38:48.515Z,2.23
2018-12-12T10:41:17.748Z,2.30
2018-12-12T10:43:47.192Z,4.50
2018-12-12T10:46:16.640Z,2.07
2018-12-12T10:48:46.017Z,2.83
2018-12-12T10:51:15.207Z,2.17
2018-12-12T10:53:44.478Z,2.47
2018-12-12T10:56:13.699Z,2.20
2018-12-12T10:58:42.890Z,1.90
2018-12-12T11:01:17.032Z,2.13
2018-12-12T11:03:46.367Z,2.03
2018-12-12T11:06:15.712Z,2.10
2018-12-12T11:08:46.101Z,2.60
2018-12-12T11:11:15.515Z,1.83
2018-12-12T11:13:44.828Z,2.27
2018-12-12T11:16:14.113Z,1.50
2018-12-12T11:18:43.508Z,2.60
2018-12-12T11:21:12.860Z,2.30
2018-12-12T11:23:42.348Z,1.87
2018-12-12T11:26:11.649Z,2.30
2018-12-12T11:28:40.794Z,1.47
2018-12-12T11:31:10.067Z,1.80
2018-12-12T11:33:39.272Z,2.00
2018-12-12T11:36:08.422Z,1.70
2018-12-12T11:38:37.737Z,1.90
2018-12-12T11:41:07.088Z,2.47
2018-12-12T11:43:36.644Z,2.17
2018-12-12T11:46:06.147Z,2.13
2018-12-12T11:48:35.485Z,1.87
2018-12-12T11:51:04.692Z,2.07
2018-12-12T11:53:33.904Z,1.70
2018-12-12T11:56:03.524Z,1.13
2018-12-12T11:58:32.994Z,0.90
2018-12-12T12:01:02.345Z,2.10
2018-12-12T12:03:31.943Z,1.73
2018-12-12T12:06:01.207Z,1.10
2018-12-12T12:08:30.632Z,1.43
2018-12-12T12:11:00.069Z,1.30
2018-12-12T12:13:29.688Z,0.90
2018-12-12T12:15:59.172Z,1.40
2018-12-12T12:18:28.731Z,1.50
2018-12-12T12:20:58.080Z,1.30
2018-12-12T12:23:27.603Z,1.27
2018-12-12T12:25:56.976Z,1.00
2018-12-12T12:28:26.311Z,1.43
2018-12-12T12:30:55.815Z,1.43
2018-12-12T12:33:25.368Z,1.10
2018-12-12T12:35:54.665Z,1.47
2018-12-12T12:38:24.064Z,1.70
2018-12-12T12:40:53.300Z,1.50
2018-12-12T12:43:22.817Z,1.20
2018-12-12T12:45:52.339Z,1.27
2018-12-12T12:48:21.688Z,1.90
2018-12-12T12:50:51.231Z,1.13
2018-12-12T12:53:21.498Z,1.60
2018-12-12T12:55:52.433Z,1.40
2018-12-12T12:58:21.995Z,1.20
2018-12-12T13:00:51.489Z,1.33
2018-12-12T13:03:20.884Z,1.90
2018-12-12T13:05:50.357Z,1.60
2018-12-12T13:08:19.663Z,2.00
2018-12-12T13:10:49.014Z,1.43
2018-12-12T13:13:18.922Z,1.77
2018-12-12T13:15:48.559Z,1.37
2018-12-12T13:18:17.924Z,1.93
2018-12-12T13:20:47.228Z,1.50
2018-12-12T13:23:16.577Z,1.87
2018-12-12T13:25:45.980Z,1.33
2018-12-12T13:28:16.728Z,1.10
2018-12-12T13:30:46.564Z,0.93
2018-12-12T13:33:17.731Z,2.87
2018-12-12T13:35:49.276Z,1.53
2018-12-12T13:38:20.067Z,1.70
2018-12-12T13:40:50.251Z,1.60
2018-12-12T13:43:19.841Z,1.00
2018-12-12T13:45:49.415Z,1.20
2018-12-12T13:48:18.778Z,1.20
2018-12-12T13:50:49.275Z,1.13
2018-12-12T13:53:18.590Z,1.03
2018-12-12T13:55:48.066Z,1.53
2018-12-12T13:58:17.430Z,1.13
2018-12-12T14:00:46.812Z,1.37
2018-12-12T14:03:16.211Z,1.30
2018-12-12T14:05:45.560Z,1.00
2018-12-12T14:08:14.949Z,0.80
2018-12-12T14:10:44.099Z,1.03
2018-12-12T14:13:13.401Z,1.13
2018-12-12T14:15:42.760Z,1.23
2018-12-12T14:18:12.004Z,1.90
2018-12-12T14:20:41.366Z,1.50
2018-12-12T14:23:11.424Z,1.53
2018-12-12T14:25:41.576Z,0.90
2018-12-12T14:28:11.553Z,1.00
2018-12-12T14:30:40.956Z,1.43
2018-12-12T14:33:10.464Z,1.63
2018-12-12T14:35:40.343Z,1.53
2018-12-12T14:38:09.879Z,1.00
2018-12-12T14:40:39.072Z,1.33
2018-12-12T14:43:08.487Z,1.00
2018-12-12T14:45:38.259Z,1.30
2018-12-12T14:48:08.209Z,1.20
2018-12-12T14:50:37.914Z,1.50
2018-12-12T14:53:07.220Z,1.33
2018-12-12T14:55:36.829Z,1.00
2018-12-12T14:58:07.185Z,1.17
2018-12-12T15:00:37.600Z,1.37
2018-12-12T15:03:07.912Z,1.47
2018-12-12T15:05:38.280Z,1.27
2018-12-12T15:08:08.643Z,1.57
2018-12-12T15:10:38.294Z,1.13
2018-12-12T15:13:07.904Z,1.03
2018-12-12T15:15:37.803Z,1.10
2018-12-12T15:18:07.335Z,1.23
2018-12-12T15:20:37.037Z,1.23
2018-12-12T15:23:06.277Z,1.60
2018-12-12T15:25:35.660Z,1.07
2018-12-12T15:28:04.976Z,1.50
2018-12-12T15:30:34.121Z,1.30
2018-12-12T15:33:03.484Z,1.50
2018-12-12T15:35:32.831Z,1.10
2018-12-12T15:38:02.161Z,1.47
2018-12-12T15:40:31.666Z,2.57
2018-12-12T15:43:01.283Z,1.13
2018-12-12T15:45:30.720Z,1.37
2018-12-12T15:48:04.005Z,1.10
2018-12-12T15:50:33.906Z,1.13
2018-12-12T15:53:03.348Z,1.60
2018-12-12T15:55:32.857Z,1.53
2018-12-12T15:58:02.036Z,1.10
2018-12-12T16:00:33.077Z,1.80
2018-12-12T16:03:02.715Z,1.30
2018-12-12T16:05:32.144Z,1.47
2018-12-12T16:08:01.511Z,1.50
2018-12-12T16:10:30.879Z,1.67
2018-12-12T16:13:00.369Z,1.10
2018-12-12T16:15:29.776Z,1.10
2018-12-12T16:17:59.287Z,1.50
2018-12-12T16:20:28.695Z,1.33
2018-12-12T16:22:58.051Z,1.47
2018-12-12T16:25:27.342Z,1.60
2018-12-12T16:27:56.776Z,2.00
2018-12-12T16:30:26.321Z,1.50
2018-12-12T16:32:55.401Z,0.97
2018-12-12T16:35:24.613Z,1.03
2018-12-12T16:37:53.892Z,1.17
2018-12-12T16:40:23.116Z,1.10
2018-12-12T16:42:52.424Z,1.30
2018-12-12T16:45:21.669Z,2.27
2018-12-12T16:47:51.046Z,2.47
2018-12-12T16:50:20.496Z,1.80
2018-12-12T16:52:49.781Z,1.80
2018-12-12T16:55:19.648Z,1.27
2018-12-12T16:57:49.330Z,1.33
2018-12-12T17:00:18.776Z,2.07
2018-12-12T17:02:48.426Z,1.67
2018-12-12T17:05:17.692Z,2.90
2018-12-12T17:07:47.192Z,2.60
2018-12-12T17:10:16.495Z,2.33
2018-12-12T17:12:45.903Z,1.33
2018-12-12T17:15:15.144Z,1.80
2018-12-12T17:17:44.710Z,3.10
2018-12-12T17:20:14.633Z,1.20
2018-12-12T17:22:44.202Z,1.50
2018-12-12T17:25:13.466Z,0.97
2018-12-12T17:27:49.969Z,1.60
2018-12-12T17:30:19.335Z,1.93
2018-12-12T17:32:48.924Z,1.47
2018-12-12T17:35:18.373Z,1.43
2018-12-12T17:37:47.783Z,1.60
2018-12-12T17:40:17.149Z,1.30
2018-12-12T17:42:46.276Z,1.10
2018-12-12T17:45:15.633Z,1.40
2018-12-12T17:47:44.704Z,1.33
2018-12-12T17:50:13.866Z,1.30
2018-12-12T17:52:44.918Z,1.33
2018-12-12T17:55:14.200Z,1.67
2018-12-12T17:57:43.827Z,1.83
2018-12-12T18:00:13.244Z,1.33
2018-12-12T18:02:42.536Z,1.10
2018-12-12T18:05:15.212Z,1.00
2018-12-12T18:07:43.371Z,0.90
2018-12-12T18:10:12.504Z,1.10
2018-12-12T18:12:41.651Z,1.30
2018-12-12T18:15:10.871Z,1.20
2018-12-12T18:17:39.950Z,1.03
2018-12-12T18:20:09.112Z,1.70
2018-12-12T18:22:38.467Z,1.07
2018-12-12T18:25:07.764Z,0.80
2018-12-12T18:27:36.845Z,0.90
2018-12-12T18:30:07.009Z,0.90
2018-12-12T18:32:36.120Z,0.90
2018-12-12T18:35:05.531Z,0.80
2018-12-12T18:37:34.765Z,1.03
2018-12-12T18:40:04.224Z,0.97
2018-12-12T18:42:33.356Z,0.70
2018-12-12T18:45:02.639Z,0.80
2018-12-12T18:47:31.882Z,1.13
2018-12-12T18:50:00.909Z,0.90
2018-12-12T18:52:30.089Z,0.83
2018-12-12T18:54:59.421Z,1.20
2018-12-12T18:57:28.675Z,1.03
2018-12-12T18:59:57.700Z,0.90
2018-12-12T19:02:26.911Z,0.70
2018-12-12T19:04:56.084Z,0.80
2018-12-12T19:07:25.246Z,1.00
2018-12-12T19:09:54.653Z,0.83
2018-12-12T19:12:23.933Z,1.20
2018-12-12T19:14:58.411Z,0.60
2018-12-12T19:17:27.542Z,0.80
2018-12-12T19:19:56.822Z,0.57
2018-12-12T19:22:26.007Z,0.90
2018-12-12T19:24:55.181Z,1.00
2018-12-12T19:27:24.585Z,1.03
2018-12-12T19:29:53.574Z,0.90
2018-12-12T19:32:22.879Z,1.17
2018-12-12T19:34:52.234Z,0.83
2018-12-12T19:37:21.372Z,0.60
2018-12-12T19:39:50.934Z,0.40
2018-12-12T19:42:20.624Z,0.97
2018-12-12T19:44:49.794Z,1.00
2018-12-12T19:47:18.972Z,0.73
2018-12-12T19:49:48.163Z,0.67
2018-12-12T19:52:17.383Z,0.60
2018-12-12T19:54:46.614Z,1.30
2018-12-12T19:57:15.844Z,1.10
2018-12-12T19:59:45.129Z,0.73
2018-12-12T20:02:14.293Z,0.73
2018-12-12T20:04:43.372Z,0.90
2018-12-12T20:07:12.387Z,0.90
2018-12-12T20:09:41.749Z,0.70
2018-12-12T20:12:10.967Z,0.80
2018-12-12T20:14:40.072Z,0.70
2018-12-12T20:17:09.226Z,0.50
2018-12-12T20:19:38.493Z,0.50
2018-12-12T20:22:08.216Z,0.60
2018-12-12T20:24:37.629Z,0.87
2018-12-12T20:27:06.874Z,0.90
2018-12-12T20:29:36.257Z,1.20
2018-12-12T20:32:05.559Z,0.77
2018-12-12T20:34:35.005Z,1.10
2018-12-12T20:37:04.417Z,0.90
2018-12-12T20:39:33.561Z,0.50
2018-12-12T20:42:03.154Z,0.70
2018-12-12T20:44:32.459Z,1.10
2018-12-12T20:47:01.684Z,1.00
2018-12-12T20:49:32.696Z,0.93
2018-12-12T20:52:01.932Z,0.90
2018-12-12T20:54:31.584Z,1.10
2018-12-12T20:57:06.939Z,1.10
2018-12-12T20:59:36.484Z,0.80
2018-12-12T21:02:05.809Z,0.93
2018-12-12T21:04:35.524Z,1.07
2018-12-12T21:07:05.214Z,1.10
2018-12-12T21:09:34.778Z,0.80
2018-12-12T21:12:03.860Z,1.00
2018-12-12T21:14:33.318Z,0.70
2018-12-12T21:17:03.076Z,1.27
2018-12-12T21:19:32.526Z,0.73
2018-12-12T21:22:01.665Z,1.00
2018-12-12T21:24:31.064Z,0.90
2018-12-12T21:27:00.431Z,0.60
2018-12-12T21:29:30.481Z,0.80
2018-12-12T21:31:59.851Z,0.87
2018-12-12T21:34:29.255Z,1.13
2018-12-12T21:36:58.496Z,0.90
2018-12-12T21:39:28.314Z,0.80
2018-12-12T21:41:57.909Z,1.20
2018-12-12T21:44:27.654Z,0.77
2018-12-12T21:46:57.135Z,0.77
2018-12-12T21:49:26.603Z,0.87
2018-12-12T21:51:55.852Z,1.20
2018-12-12T21:54:24.962Z,1.20
2018-12-12T21:56:54.136Z,1.47
2018-12-12T21:59:23.348Z,1.43
2018-12-12T22:01:52.517Z,0.93
2018-12-12T22:04:21.932Z,1.30
2018-12-12T22:06:51.344Z,0.90
2018-12-12T22:09:20.728Z,1.87
2018-12-12T22:11:50.073Z,0.90
2018-12-12T22:14:19.333Z,1.07
2018-12-12T22:16:48.834Z,0.80
2018-12-12T22:19:18.237Z,1.10
2018-12-12T22:21:47.539Z,1.30
2018-12-12T22:24:16.936Z,1.10
2018-12-12T22:26:46.444Z,0.97
2018-12-12T22:29:15.764Z,1.23
2018-12-12T22:31:45.157Z,1.13
2018-12-12T22:34:14.512Z,1.33
2018-12-12T22:36:43.780Z,0.70
2018-12-12T22:39:12.864Z,0.70
2018-12-12T22:41:42.201Z,1.13
2018-12-12T22:44:11.583Z,1.20
2018-12-12T22:46:40.872Z,1.90
2018-12-12T22:49:10.072Z,2.00
2018-12-12T22:51:39.412Z,1.80
2018-12-12T22:54:08.648Z,2.20
2018-12-12T22:56:37.916Z,2.40
2018-12-12T22:59:07.041Z,1.90
2018-12-12T23:01:36.463Z,1.80
2018-12-12T23:04:05.699Z,1.20
2018-12-12T23:06:34.815Z,1.80
2018-12-12T23:09:04.384Z,1.90
2018-12-12T23:11:33.876Z,1.40
2018-12-12T23:14:03.276Z,1.60
2018-12-12T23:16:32.620Z,1.90
2018-12-12T23:19:01.990Z,2.20
2018-12-12T23:21:31.589Z,2.53
2018-12-12T23:24:00.935Z,1.13
2018-12-12T23:26:30.072Z,1.40
2018-12-12T23:28:59.547Z,1.30
2018-12-12T23:31:28.699Z,1.23
2018-12-12T23:33:58.031Z,1.20
2018-12-12T23:36:27.436Z,1.53
2018-12-12T23:38:56.855Z,0.80
2018-12-12T23:41:26.013Z,1.43
2018-12-12T23:43:55.547Z,1.20
2018-12-12T23:46:24.663Z,0.90
2018-12-12T23:48:54.340Z,1.00
2018-12-12T23:51:23.401Z,1.00
2018-12-12T23:53:52.536Z,1.43
2018-12-12T23:56:21.863Z,1.10
2018-12-12T23:58:51.078Z,1.17
